sensor_id;sensor_type;location;lat;lon;timestamp;P1;durP1;ratioP1;P2;durP2;ratioP2
13445;SDS011;6795;51.232;3.764;2023-07-20T00:03:09;13.15;;;9.00;;
13445;SDS011;6795;51.232;3.764;2023-07-20T00:07:07;17.58;;;8.85;;
13445;SDS011;6795;51.232;3.764;2023-07-20T00:10:01;17.92;;;9.35;;
13445;SDS011;6795;51.232;3.764;2023-07-20T00:13:02;16.63;;;9.80;;
13445;SDS011;6795;51.232;3.764;2023-07-20T00:16:02;17.42;;;9.45;;
13445;SDS011;6795;51.232;3.764;2023-07-20T00:19:15;18.58;;;10.05;;
13445;SDS011;6795;51.232;3.764;2023-07-20T00:22:27;16.48;;;10.98;;
13445;SDS011;6795;51.232;3.764;2023-07-20T00:26:13;16.90;;;11.30;;
13445;SDS011;6795;51.232;3.764;2023-07-20T00:29:41;20.50;;;11.52;;
13445;SDS011;6795;51.232;3.764;2023-07-20T00:32:21;13.15;;;11.35;;
13445;SDS011;6795;51.232;3.764;2023-07-20T00:35:21;14.15;;;11.88;;
13445;SDS011;6795;51.232;3.764;2023-07-20T00:38:32;28.55;;;13.60;;
13445;SDS011;6795;51.232;3.764;2023-07-20T00:41:50;22.05;;;13.20;;
13445;SDS011;6795;51.232;3.764;2023-07-20T00:44:59;19.23;;;13.52;;
13445;SDS011;6795;51.232;3.764;2023-07-20T00:48:01;21.85;;;14.52;;
13445;SDS011;6795;51.232;3.764;2023-07-20T00:51:15;22.23;;;14.48;;
13445;SDS011;6795;51.232;3.764;2023-07-20T00:54:28;20.20;;;14.50;;
13445;SDS011;6795;51.232;3.764;2023-07-20T00:57:54;26.02;;;16.23;;
13445;SDS011;6795;51.232;3.764;2023-07-20T01:01:39;26.48;;;16.13;;
13445;SDS011;6795;51.232;3.764;2023-07-20T01:04:50;21.08;;;14.18;;
13445;SDS011;6795;51.232;3.764;2023-07-20T01:08:36;23.23;;;16.58;;
13445;SDS011;6795;51.232;3.764;2023-07-20T01:11:37;23.45;;;16.88;;
13445;SDS011;6795;51.232;3.764;2023-07-20T01:14:34;24.48;;;17.33;;
13445;SDS011;6795;51.232;3.764;2023-07-20T01:17:46;23.38;;;17.05;;
13445;SDS011;6795;51.232;3.764;2023-07-20T01:20:42;24.77;;;15.95;;
13445;SDS011;6795;51.232;3.764;2023-07-20T01:27:07;25.25;;;17.77;;
13445;SDS011;6795;51.232;3.764;2023-07-20T01:30:25;26.02;;;18.20;;
13445;SDS011;6795;51.232;3.764;2023-07-20T01:47:08;25.40;;;17.70;;
13445;SDS011;6795;51.232;3.764;2023-07-20T01:50:05;30.55;;;21.50;;
13445;SDS011;6795;51.232;3.764;2023-07-20T01:53:10;25.65;;;19.60;;
13445;SDS011;6795;51.232;3.764;2023-07-20T01:56:47;27.42;;;20.73;;
13445;SDS011;6795;51.232;3.764;2023-07-20T01:59:58;30.13;;;21.63;;
13445;SDS011;6795;51.232;3.764;2023-07-20T02:14:08;37.97;;;24.20;;
13445;SDS011;6795;51.232;3.764;2023-07-20T02:17:10;31.48;;;23.85;;
13445;SDS011;6795;51.232;3.764;2023-07-20T02:20:12;33.45;;;23.50;;
13445;SDS011;6795;51.232;3.764;2023-07-20T02:23:34;35.42;;;23.08;;
13445;SDS011;6795;51.232;3.764;2023-07-20T02:26:57;30.42;;;23.83;;
13445;SDS011;6795;51.232;3.764;2023-07-20T02:30:08;31.88;;;24.40;;
13445;SDS011;6795;51.232;3.764;2023-07-20T02:33:12;29.73;;;23.67;;
13445;SDS011;6795;51.232;3.764;2023-07-20T02:36:23;33.67;;;24.75;;
13445;SDS011;6795;51.232;3.764;2023-07-20T02:39:34;27.20;;;21.75;;
13445;SDS011;6795;51.232;3.764;2023-07-20T02:42:46;30.00;;;23.02;;
13445;SDS011;6795;51.232;3.764;2023-07-20T02:46:11;28.60;;;23.13;;
13445;SDS011;6795;51.232;3.764;2023-07-20T02:49:37;28.75;;;23.35;;
13445;SDS011;6795;51.232;3.764;2023-07-20T02:52:28;26.80;;;23.25;;
13445;SDS011;6795;51.232;3.764;2023-07-20T02:55:34;29.92;;;24.05;;
13445;SDS011;6795;51.232;3.764;2023-07-20T02:58:48;27.50;;;23.38;;
13445;SDS011;6795;51.232;3.764;2023-07-20T03:06:13;33.00;;;22.52;;
13445;SDS011;6795;51.232;3.764;2023-07-20T03:09:35;28.88;;;21.85;;
13445;SDS011;6795;51.232;3.764;2023-07-20T03:12:41;27.85;;;21.75;;
13445;SDS011;6795;51.232;3.764;2023-07-20T03:15:45;26.13;;;22.30;;
13445;SDS011;6795;51.232;3.764;2023-07-20T03:20:40;24.40;;;21.65;;
13445;SDS011;6795;51.232;3.764;2023-07-20T03:29:19;26.50;;;21.48;;
13445;SDS011;6795;51.232;3.764;2023-07-20T03:32:55;27.38;;;22.05;;
13445;SDS011;6795;51.232;3.764;2023-07-20T03:35:50;24.10;;;21.58;;
13445;SDS011;6795;51.232;3.764;2023-07-20T03:38:45;26.77;;;22.30;;
13445;SDS011;6795;51.232;3.764;2023-07-20T03:41:52;24.60;;;21.05;;
13445;SDS011;6795;51.232;3.764;2023-07-20T03:59:20;24.27;;;21.88;;
13445;SDS011;6795;51.232;3.764;2023-07-20T04:02:16;21.70;;;19.55;;
13445;SDS011;6795;51.232;3.764;2023-07-20T04:08:47;22.05;;;19.70;;
13445;SDS011;6795;51.232;3.764;2023-07-20T04:12:12;21.77;;;19.63;;
13445;SDS011;6795;51.232;3.764;2023-07-20T04:18:43;22.25;;;19.10;;
13445;SDS011;6795;51.232;3.764;2023-07-20T04:21:39;21.25;;;18.55;;
13445;SDS011;6795;51.232;3.764;2023-07-20T04:24:43;18.40;;;16.48;;
13445;SDS011;6795;51.232;3.764;2023-07-20T04:27:58;15.13;;;13.82;;
13445;SDS011;6795;51.232;3.764;2023-07-20T04:31:24;13.07;;;11.90;;
13445;SDS011;6795;51.232;3.764;2023-07-20T04:44:56;11.60;;;10.55;;
13445;SDS011;6795;51.232;3.764;2023-07-20T04:48:03;9.70;;;8.70;;
13445;SDS011;6795;51.232;3.764;2023-07-20T04:51:07;10.05;;;8.48;;
13445;SDS011;6795;51.232;3.764;2023-07-20T04:54:38;10.00;;;8.50;;
13445;SDS011;6795;51.232;3.764;2023-07-20T04:57:24;6.78;;;6.13;;
13445;SDS011;6795;51.232;3.764;2023-07-20T05:00:32;4.32;;;4.03;;
13445;SDS011;6795;51.232;3.764;2023-07-20T05:04:21;5.35;;;3.90;;
13445;SDS011;6795;51.232;3.764;2023-07-20T05:07:22;3.28;;;3.03;;
13445;SDS011;6795;51.232;3.764;2023-07-20T05:10:51;2.78;;;1.70;;
13445;SDS011;6795;51.232;3.764;2023-07-20T05:13:46;2.70;;;2.35;;
13445;SDS011;6795;51.232;3.764;2023-07-20T05:20:20;2.58;;;1.42;;
13445;SDS011;6795;51.232;3.764;2023-07-20T05:23:24;1.58;;;1.48;;
13445;SDS011;6795;51.232;3.764;2023-07-20T05:26:47;1.02;;;1.02;;
13445;SDS011;6795;51.232;3.764;2023-07-20T05:29:45;1.65;;;0.90;;
13445;SDS011;6795;51.232;3.764;2023-07-20T05:32:55;2.22;;;0.80;;
13445;SDS011;6795;51.232;3.764;2023-07-20T05:43:24;1.13;;;0.80;;
13445;SDS011;6795;51.232;3.764;2023-07-20T05:46:31;1.17;;;0.70;;
13445;SDS011;6795;51.232;3.764;2023-07-20T05:49:52;0.60;;;0.60;;
13445;SDS011;6795;51.232;3.764;2023-07-20T05:53:16;0.50;;;0.50;;
13445;SDS011;6795;51.232;3.764;2023-07-20T05:56:15;0.60;;;0.60;;
13445;SDS011;6795;51.232;3.764;2023-07-20T05:59:36;2.00;;;0.55;;
13445;SDS011;6795;51.232;3.764;2023-07-20T06:02:33;0.40;;;0.40;;
13445;SDS011;6795;51.232;3.764;2023-07-20T06:06:00;1.27;;;0.38;;
13445;SDS011;6795;51.232;3.764;2023-07-20T06:09:00;0.85;;;0.60;;
13445;SDS011;6795;51.232;3.764;2023-07-20T06:12:25;1.05;;;0.30;;
13445;SDS011;6795;51.232;3.764;2023-07-20T06:15:57;0.68;;;0.50;;
13445;SDS011;6795;51.232;3.764;2023-07-20T06:19:02;1.10;;;0.20;;
13445;SDS011;6795;51.232;3.764;2023-07-20T06:22:41;1.25;;;1.25;;
13445;SDS011;6795;51.232;3.764;2023-07-20T06:26:15;0.10;;;0.10;;
13445;SDS011;6795;51.232;3.764;2023-07-20T06:29:47;0.10;;;0.10;;
13445;SDS011;6795;51.232;3.764;2023-07-20T06:40:16;0.20;;;0.20;;
13445;SDS011;6795;51.232;3.764;2023-07-20T06:43:40;0.38;;;0.10;;
13445;SDS011;6795;51.232;3.764;2023-07-20T06:47:06;0.10;;;0.00;;
13445;SDS011;6795;51.232;3.764;2023-07-20T06:50:42;1.58;;;0.20;;
13445;SDS011;6795;51.232;3.764;2023-07-20T06:53:42;0.32;;;0.10;;
13445;SDS011;6795;51.232;3.764;2023-07-20T06:56:45;0.00;;;0.00;;
13445;SDS011;6795;51.232;3.764;2023-07-20T06:59:58;0.00;;;0.00;;
13445;SDS011;6795;51.232;3.764;2023-07-20T07:03:30;4.47;;;0.10;;
13445;SDS011;6795;51.232;3.764;2023-07-20T07:06:45;0.00;;;0.00;;
13445;SDS011;6795;51.232;3.764;2023-07-20T07:10:13;0.17;;;0.10;;
13445;SDS011;6795;51.232;3.764;2023-07-20T07:13:35;0.00;;;0.00;;
13445;SDS011;6795;51.232;3.764;2023-07-20T07:16:53;0.00;;;0.00;;
13445;SDS011;6795;51.232;3.764;2023-07-20T07:19:59;0.35;;;0.00;;
13445;SDS011;6795;51.232;3.764;2023-07-20T07:23:27;1.10;;;0.17;;
13445;SDS011;6795;51.232;3.764;2023-07-20T07:26:52;0.00;;;0.00;;
13445;SDS011;6795;51.232;3.764;2023-07-20T07:30:34;0.00;;;0.00;;
13445;SDS011;6795;51.232;3.764;2023-07-20T07:34:06;2.20;;;0.00;;
13445;SDS011;6795;51.232;3.764;2023-07-20T07:36:47;0.10;;;0.08;;
13445;SDS011;6795;51.232;3.764;2023-07-20T07:40:17;1.85;;;0.03;;
13445;SDS011;6795;51.232;3.764;2023-07-20T07:43:47;0.65;;;0.10;;
13445;SDS011;6795;51.232;3.764;2023-07-20T07:46:50;0.00;;;0.00;;
13445;SDS011;6795;51.232;3.764;2023-07-20T07:50:03;0.20;;;0.20;;
13445;SDS011;6795;51.232;3.764;2023-07-20T07:53:00;0.00;;;0.00;;
13445;SDS011;6795;51.232;3.764;2023-07-20T07:59:56;0.45;;;0.00;;
13445;SDS011;6795;51.232;3.764;2023-07-20T08:03:03;1.27;;;0.10;;
13445;SDS011;6795;51.232;3.764;2023-07-20T08:06:19;0.08;;;0.05;;
13445;SDS011;6795;51.232;3.764;2023-07-20T08:09:13;0.00;;;0.00;;
13445;SDS011;6795;51.232;3.764;2023-07-20T08:12:13;0.00;;;0.00;;
13445;SDS011;6795;51.232;3.764;2023-07-20T08:15:31;0.15;;;0.10;;
13445;SDS011;6795;51.232;3.764;2023-07-20T08:26:27;0.22;;;0.00;;
13445;SDS011;6795;51.232;3.764;2023-07-20T08:29:56;0.00;;;0.00;;
13445;SDS011;6795;51.232;3.764;2023-07-20T08:33:01;0.75;;;0.00;;
13445;SDS011;6795;51.232;3.764;2023-07-20T08:36:08;0.00;;;0.00;;
13445;SDS011;6795;51.232;3.764;2023-07-20T08:39:35;0.40;;;0.10;;
13445;SDS011;6795;51.232;3.764;2023-07-20T08:42:45;0.03;;;0.03;;
13445;SDS011;6795;51.232;3.764;2023-07-20T08:45:51;0.10;;;0.10;;
13445;SDS011;6795;51.232;3.764;2023-07-20T08:49:12;0.00;;;0.00;;
13445;SDS011;6795;51.232;3.764;2023-07-20T08:52:35;0.00;;;0.00;;
13445;SDS011;6795;51.232;3.764;2023-07-20T09:03:32;0.43;;;0.00;;
13445;SDS011;6795;51.232;3.764;2023-07-20T09:06:37;1.75;;;0.00;;
13445;SDS011;6795;51.232;3.764;2023-07-20T09:09:54;2.92;;;0.20;;
13445;SDS011;6795;51.232;3.764;2023-07-20T09:13:16;1.10;;;0.10;;
13445;SDS011;6795;51.232;3.764;2023-07-20T09:20:27;0.20;;;0.10;;
13445;SDS011;6795;51.232;3.764;2023-07-20T09:23:41;1.00;;;0.10;;
13445;SDS011;6795;51.232;3.764;2023-07-20T09:26:54;0.03;;;0.03;;
13445;SDS011;6795;51.232;3.764;2023-07-20T09:29:59;2.63;;;0.10;;
13445;SDS011;6795;51.232;3.764;2023-07-20T09:37:14;0.30;;;0.10;;
13445;SDS011;6795;51.232;3.764;2023-07-20T09:40:29;0.10;;;0.10;;
13445;SDS011;6795;51.232;3.764;2023-07-20T09:43:34;0.40;;;0.10;;
13445;SDS011;6795;51.232;3.764;2023-07-20T09:47:22;0.55;;;0.20;;
13445;SDS011;6795;51.232;3.764;2023-07-20T09:50:41;0.05;;;0.05;;
13445;SDS011;6795;51.232;3.764;2023-07-20T09:53:58;0.10;;;0.10;;
13445;SDS011;6795;51.232;3.764;2023-07-20T09:57:29;0.73;;;0.10;;
13445;SDS011;6795;51.232;3.764;2023-07-20T10:00:38;2.40;;;0.20;;
13445;SDS011;6795;51.232;3.764;2023-07-20T10:03:41;1.10;;;0.10;;
13445;SDS011;6795;51.232;3.764;2023-07-20T10:06:54;0.20;;;0.20;;
13445;SDS011;6795;51.232;3.764;2023-07-20T10:09:55;0.10;;;0.10;;
13445;SDS011;6795;51.232;3.764;2023-07-20T10:13:00;1.55;;;0.20;;
13445;SDS011;6795;51.232;3.764;2023-07-20T10:16:06;0.20;;;0.20;;
13445;SDS011;6795;51.232;3.764;2023-07-20T10:19:11;0.10;;;0.10;;
13445;SDS011;6795;51.232;3.764;2023-07-20T10:22:27;0.10;;;0.10;;
13445;SDS011;6795;51.232;3.764;2023-07-20T10:36:15;1.20;;;0.20;;
13445;SDS011;6795;51.232;3.764;2023-07-20T10:39:26;0.55;;;0.20;;
13445;SDS011;6795;51.232;3.764;2023-07-20T10:42:35;0.35;;;0.20;;
13445;SDS011;6795;51.232;3.764;2023-07-20T10:46:05;0.20;;;0.20;;
13445;SDS011;6795;51.232;3.764;2023-07-20T10:49:38;0.60;;;0.20;;
13445;SDS011;6795;51.232;3.764;2023-07-20T10:56:19;0.70;;;0.38;;
13445;SDS011;6795;51.232;3.764;2023-07-20T10:59:20;0.47;;;0.20;;
13445;SDS011;6795;51.232;3.764;2023-07-20T11:02:43;2.72;;;0.38;;
13445;SDS011;6795;51.232;3.764;2023-07-20T11:09:58;0.20;;;0.20;;
13445;SDS011;6795;51.232;3.764;2023-07-20T11:13:32;0.20;;;0.20;;
13445;SDS011;6795;51.232;3.764;2023-07-20T11:17:10;5.95;;;0.22;;
13445;SDS011;6795;51.232;3.764;2023-07-20T11:20:18;1.17;;;0.20;;
13445;SDS011;6795;51.232;3.764;2023-07-20T11:23:48;0.75;;;0.10;;
13445;SDS011;6795;51.232;3.764;2023-07-20T11:27:17;3.15;;;0.10;;
13445;SDS011;6795;51.232;3.764;2023-07-20T11:30:52;0.47;;;0.20;;
13445;SDS011;6795;51.232;3.764;2023-07-20T11:33:57;0.20;;;0.20;;
13445;SDS011;6795;51.232;3.764;2023-07-20T11:37:10;0.65;;;0.30;;
13445;SDS011;6795;51.232;3.764;2023-07-20T11:41:17;0.40;;;0.35;;
13445;SDS011;6795;51.232;3.764;2023-07-20T11:44:36;0.52;;;0.30;;
13445;SDS011;6795;51.232;3.764;2023-07-20T11:51:18;4.05;;;0.47;;
13445;SDS011;6795;51.232;3.764;2023-07-20T11:54:50;0.98;;;0.30;;
13445;SDS011;6795;51.232;3.764;2023-07-20T11:57:48;0.52;;;0.30;;
13445;SDS011;6795;51.232;3.764;2023-07-20T12:01:17;1.45;;;0.20;;
13445;SDS011;6795;51.232;3.764;2023-07-20T12:04:23;0.52;;;0.28;;
13445;SDS011;6795;51.232;3.764;2023-07-20T12:07:29;1.55;;;0.30;;
13445;SDS011;6795;51.232;3.764;2023-07-20T12:10:30;0.60;;;0.28;;
13445;SDS011;6795;51.232;3.764;2023-07-20T12:14:50;0.35;;;0.30;;
13445;SDS011;6795;51.232;3.764;2023-07-20T12:17:23;0.57;;;0.30;;
13445;SDS011;6795;51.232;3.764;2023-07-20T12:35:13;2.80;;;0.40;;
13445;SDS011;6795;51.232;3.764;2023-07-20T12:38:22;11.95;;;0.95;;
13445;SDS011;6795;51.232;3.764;2023-07-20T12:41:16;5.15;;;0.93;;
13445;SDS011;6795;51.232;3.764;2023-07-20T12:44:50;1.45;;;0.30;;
13445;SDS011;6795;51.232;3.764;2023-07-20T12:47:52;1.20;;;0.32;;
13445;SDS011;6795;51.232;3.764;2023-07-20T12:59:25;1.08;;;0.40;;
13445;SDS011;6795;51.232;3.764;2023-07-20T13:02:43;0.30;;;0.30;;
13445;SDS011;6795;51.232;3.764;2023-07-20T13:06:08;1.75;;;0.40;;
13445;SDS011;6795;51.232;3.764;2023-07-20T13:09:58;1.20;;;0.40;;
13445;SDS011;6795;51.232;3.764;2023-07-20T13:13:00;1.65;;;0.30;;
13445;SDS011;6795;51.232;3.764;2023-07-20T13:23:53;1.50;;;0.20;;
13445;SDS011;6795;51.232;3.764;2023-07-20T13:27:25;0.40;;;0.32;;
13445;SDS011;6795;51.232;3.764;2023-07-20T13:30:36;0.38;;;0.38;;
13445;SDS011;6795;51.232;3.764;2023-07-20T13:33:59;2.00;;;0.50;;
13445;SDS011;6795;51.232;3.764;2023-07-20T13:37:10;0.63;;;0.50;;
13445;SDS011;6795;51.232;3.764;2023-07-20T13:44:19;0.95;;;0.95;;
13445;SDS011;6795;51.232;3.764;2023-07-20T13:47:45;1.65;;;1.55;;
13445;SDS011;6795;51.232;3.764;2023-07-20T13:50:48;1.77;;;1.70;;
13445;SDS011;6795;51.232;3.764;2023-07-20T13:54:03;2.30;;;2.20;;
13445;SDS011;6795;51.232;3.764;2023-07-20T13:57:05;3.22;;;2.35;;
13445;SDS011;6795;51.232;3.764;2023-07-20T14:00:16;2.85;;;2.65;;
13445;SDS011;6795;51.232;3.764;2023-07-20T14:03:21;2.75;;;2.65;;
13445;SDS011;6795;51.232;3.764;2023-07-20T14:06:34;3.03;;;2.83;;
13445;SDS011;6795;51.232;3.764;2023-07-20T14:09:58;5.07;;;3.38;;
13445;SDS011;6795;51.232;3.764;2023-07-20T14:13:28;1.90;;;1.80;;
13445;SDS011;6795;51.232;3.764;2023-07-20T14:30:35;1.98;;;1.88;;
13445;SDS011;6795;51.232;3.764;2023-07-20T14:33:40;2.33;;;2.22;;
13445;SDS011;6795;51.232;3.764;2023-07-20T14:37:01;3.00;;;2.55;;
13445;SDS011;6795;51.232;3.764;2023-07-20T14:40:01;3.17;;;1.55;;
13445;SDS011;6795;51.232;3.764;2023-07-20T14:43:22;1.42;;;1.17;;
13445;SDS011;6795;51.232;3.764;2023-07-20T14:46:16;1.23;;;1.23;;
13445;SDS011;6795;51.232;3.764;2023-07-20T14:50:05;0.82;;;0.82;;
13445;SDS011;6795;51.232;3.764;2023-07-20T14:53:21;2.00;;;0.75;;
13445;SDS011;6795;51.232;3.764;2023-07-20T14:56:18;1.50;;;0.90;;
13445;SDS011;6795;51.232;3.764;2023-07-20T14:59:41;0.73;;;0.70;;
13445;SDS011;6795;51.232;3.764;2023-07-20T15:09:38;0.93;;;0.60;;
13445;SDS011;6795;51.232;3.764;2023-07-20T15:12:44;0.88;;;0.70;;
13445;SDS011;6795;51.232;3.764;2023-07-20T15:16:07;1.27;;;0.70;;
13445;SDS011;6795;51.232;3.764;2023-07-20T15:19:03;0.60;;;0.60;;
13445;SDS011;6795;51.232;3.764;2023-07-20T15:22:24;0.98;;;0.60;;
13445;SDS011;6795;51.232;3.764;2023-07-20T15:51:26;1.17;;;0.65;;
13445;SDS011;6795;51.232;3.764;2023-07-20T15:54:20;0.47;;;0.30;;
13445;SDS011;6795;51.232;3.764;2023-07-20T15:57:26;0.30;;;0.30;;
13445;SDS011;6795;51.232;3.764;2023-07-20T16:01:21;0.25;;;0.25;;
13445;SDS011;6795;51.232;3.764;2023-07-20T16:04:07;0.30;;;0.28;;
13445;SDS011;6795;51.232;3.764;2023-07-20T16:07:19;2.50;;;0.20;;
13445;SDS011;6795;51.232;3.764;2023-07-20T16:10:19;0.30;;;0.30;;
13445;SDS011;6795;51.232;3.764;2023-07-20T16:13:39;0.60;;;0.40;;
13445;SDS011;6795;51.232;3.764;2023-07-20T16:16:40;2.25;;;0.30;;
13445;SDS011;6795;51.232;3.764;2023-07-20T16:19:58;0.30;;;0.30;;
13445;SDS011;6795;51.232;3.764;2023-07-20T16:23:03;0.55;;;0.40;;
13445;SDS011;6795;51.232;3.764;2023-07-20T16:26:08;0.43;;;0.30;;
13445;SDS011;6795;51.232;3.764;2023-07-20T16:29:10;0.30;;;0.30;;
13445;SDS011;6795;51.232;3.764;2023-07-20T16:32:41;0.85;;;0.40;;
13445;SDS011;6795;51.232;3.764;2023-07-20T16:35:54;0.30;;;0.30;;
13445;SDS011;6795;51.232;3.764;2023-07-20T16:39:01;0.82;;;0.40;;
13445;SDS011;6795;51.232;3.764;2023-07-20T16:42:25;0.98;;;0.47;;
13445;SDS011;6795;51.232;3.764;2023-07-20T16:45:39;0.73;;;0.40;;
13445;SDS011;6795;51.232;3.764;2023-07-20T16:49:33;0.55;;;0.30;;
13445;SDS011;6795;51.232;3.764;2023-07-20T16:52:43;0.35;;;0.35;;
13445;SDS011;6795;51.232;3.764;2023-07-20T16:59:28;0.40;;;0.40;;
13445;SDS011;6795;51.232;3.764;2023-07-20T17:02:24;0.47;;;0.40;;
13445;SDS011;6795;51.232;3.764;2023-07-20T17:05:27;1.58;;;0.35;;
13445;SDS011;6795;51.232;3.764;2023-07-20T17:07:56;0.75;;;0.30;;
13445;SDS011;6795;51.232;3.764;2023-07-20T17:10:26;0.63;;;0.30;;
13445;SDS011;6795;51.232;3.764;2023-07-20T17:12:59;0.40;;;0.40;;
13445;SDS011;6795;51.232;3.764;2023-07-20T17:15:59;0.77;;;0.30;;
13445;SDS011;6795;51.232;3.764;2023-07-20T17:18:30;0.30;;;0.30;;
13445;SDS011;6795;51.232;3.764;2023-07-20T17:21:11;0.50;;;0.50;;
13445;SDS011;6795;51.232;3.764;2023-07-20T17:23:48;1.85;;;0.60;;
13445;SDS011;6795;51.232;3.764;2023-07-20T17:26:20;0.50;;;0.50;;
13445;SDS011;6795;51.232;3.764;2023-07-20T17:28:51;1.00;;;0.82;;
13445;SDS011;6795;51.232;3.764;2023-07-20T17:31:23;0.98;;;0.50;;
13445;SDS011;6795;51.232;3.764;2023-07-20T17:33:55;0.60;;;0.50;;
13445;SDS011;6795;51.232;3.764;2023-07-20T17:36:25;6.22;;;0.77;;
13445;SDS011;6795;51.232;3.764;2023-07-20T17:39:00;1.30;;;0.68;;
13445;SDS011;6795;51.232;3.764;2023-07-20T17:41:28;0.82;;;0.82;;
13445;SDS011;6795;51.232;3.764;2023-07-20T17:43:57;0.80;;;0.80;;
13445;SDS011;6795;51.232;3.764;2023-07-20T17:49:27;1.50;;;0.50;;
13445;SDS011;6795;51.232;3.764;2023-07-20T17:51:56;3.42;;;0.47;;
13445;SDS011;6795;51.232;3.764;2023-07-20T17:54:25;0.98;;;0.50;;
13445;SDS011;6795;51.232;3.764;2023-07-20T17:56:53;0.95;;;0.40;;
13445;SDS011;6795;51.232;3.764;2023-07-20T17:59:22;2.20;;;0.50;;
13445;SDS011;6795;51.232;3.764;2023-07-20T18:01:50;0.75;;;0.40;;
13445;SDS011;6795;51.232;3.764;2023-07-20T18:04:22;1.30;;;0.40;;
13445;SDS011;6795;51.232;3.764;2023-07-20T18:06:51;0.55;;;0.30;;
13445;SDS011;6795;51.232;3.764;2023-07-20T18:09:20;2.17;;;0.40;;
13445;SDS011;6795;51.232;3.764;2023-07-20T18:11:51;1.33;;;0.40;;
13445;SDS011;6795;51.232;3.764;2023-07-20T18:14:26;0.50;;;0.30;;
13445;SDS011;6795;51.232;3.764;2023-07-20T18:16:54;0.52;;;0.40;;
13445;SDS011;6795;51.232;3.764;2023-07-20T18:19:24;0.65;;;0.40;;
13445;SDS011;6795;51.232;3.764;2023-07-20T18:21:53;0.40;;;0.40;;
13445;SDS011;6795;51.232;3.764;2023-07-20T18:24:23;2.42;;;0.40;;
13445;SDS011;6795;51.232;3.764;2023-07-20T18:26:52;0.55;;;0.40;;
13445;SDS011;6795;51.232;3.764;2023-07-20T18:29:22;1.75;;;0.50;;
13445;SDS011;6795;51.232;3.764;2023-07-20T18:31:51;0.57;;;0.57;;
13445;SDS011;6795;51.232;3.764;2023-07-20T18:34:19;1.08;;;0.60;;
13445;SDS011;6795;51.232;3.764;2023-07-20T18:36:49;0.30;;;0.30;;
13445;SDS011;6795;51.232;3.764;2023-07-20T18:39:18;1.60;;;0.40;;
13445;SDS011;6795;51.232;3.764;2023-07-20T18:41:46;3.50;;;0.30;;
13445;SDS011;6795;51.232;3.764;2023-07-20T18:44:17;1.40;;;0.43;;
13445;SDS011;6795;51.232;3.764;2023-07-20T18:46:45;1.75;;;0.40;;
13445;SDS011;6795;51.232;3.764;2023-07-20T18:49:14;2.22;;;0.40;;
13445;SDS011;6795;51.232;3.764;2023-07-20T18:51:42;0.63;;;0.40;;
13445;SDS011;6795;51.232;3.764;2023-07-20T18:54:12;1.33;;;0.38;;
13445;SDS011;6795;51.232;3.764;2023-07-20T18:56:41;1.95;;;0.47;;
13445;SDS011;6795;51.232;3.764;2023-07-20T18:59:39;2.30;;;0.40;;
13445;SDS011;6795;51.232;3.764;2023-07-20T19:02:24;1.35;;;0.40;;
13445;SDS011;6795;51.232;3.764;2023-07-20T19:04:55;3.42;;;0.40;;
13445;SDS011;6795;51.232;3.764;2023-07-20T19:07:24;2.63;;;0.50;;
13445;SDS011;6795;51.232;3.764;2023-07-20T19:09:54;1.42;;;0.63;;
13445;SDS011;6795;51.232;3.764;2023-07-20T19:12:23;1.75;;;0.70;;
13445;SDS011;6795;51.232;3.764;2023-07-20T19:14:52;1.73;;;1.08;;
13445;SDS011;6795;51.232;3.764;2023-07-20T19:17:20;1.08;;;0.90;;
13445;SDS011;6795;51.232;3.764;2023-07-20T19:19:51;1.25;;;0.70;;
13445;SDS011;6795;51.232;3.764;2023-07-20T19:22:22;0.60;;;0.60;;
13445;SDS011;6795;51.232;3.764;2023-07-20T19:24:52;3.45;;;0.88;;
13445;SDS011;6795;51.232;3.764;2023-07-20T19:27:22;4.00;;;0.90;;
13445;SDS011;6795;51.232;3.764;2023-07-20T19:29:52;1.35;;;1.25;;
13445;SDS011;6795;51.232;3.764;2023-07-20T19:32:29;10.18;;;1.85;;
13445;SDS011;6795;51.232;3.764;2023-07-20T19:35:11;1.23;;;1.13;;
13445;SDS011;6795;51.232;3.764;2023-07-20T19:37:40;7.43;;;2.00;;
13445;SDS011;6795;51.232;3.764;2023-07-20T19:40:13;1.88;;;1.75;;
13445;SDS011;6795;51.232;3.764;2023-07-20T19:42:43;4.63;;;2.42;;
13445;SDS011;6795;51.232;3.764;2023-07-20T19:45:18;2.05;;;1.88;;
13445;SDS011;6795;51.232;3.764;2023-07-20T19:47:46;3.30;;;3.03;;
13445;SDS011;6795;51.232;3.764;2023-07-20T19:50:15;2.90;;;2.50;;
13445;SDS011;6795;51.232;3.764;2023-07-20T19:52:46;2.13;;;1.90;;
13445;SDS011;6795;51.232;3.764;2023-07-20T19:55:17;3.72;;;1.85;;
13445;SDS011;6795;51.232;3.764;2023-07-20T19:57:50;6.05;;;2.15;;
13445;SDS011;6795;51.232;3.764;2023-07-20T20:00:48;2.30;;;2.13;;
13445;SDS011;6795;51.232;3.764;2023-07-20T20:03:19;4.93;;;1.92;;
13445;SDS011;6795;51.232;3.764;2023-07-20T20:05:55;1.98;;;1.60;;
13445;SDS011;6795;51.232;3.764;2023-07-20T20:08:23;2.55;;;2.00;;
13445;SDS011;6795;51.232;3.764;2023-07-20T20:10:52;5.03;;;1.83;;
13445;SDS011;6795;51.232;3.764;2023-07-20T20:13:25;3.13;;;2.25;;
13445;SDS011;6795;51.232;3.764;2023-07-20T20:15:54;3.33;;;2.05;;
13445;SDS011;6795;51.232;3.764;2023-07-20T20:18:23;5.30;;;2.08;;
13445;SDS011;6795;51.232;3.764;2023-07-20T20:20:55;2.80;;;2.28;;
13445;SDS011;6795;51.232;3.764;2023-07-20T20:23:25;6.45;;;2.35;;
13445;SDS011;6795;51.232;3.764;2023-07-20T20:25:53;2.67;;;2.47;;
13445;SDS011;6795;51.232;3.764;2023-07-20T20:28:23;6.88;;;2.13;;
13445;SDS011;6795;51.232;3.764;2023-07-20T20:30:53;5.72;;;2.40;;
13445;SDS011;6795;51.232;3.764;2023-07-20T20:33:22;4.80;;;3.30;;
13445;SDS011;6795;51.232;3.764;2023-07-20T20:35:59;5.95;;;3.05;;
13445;SDS011;6795;51.232;3.764;2023-07-20T20:38:42;3.55;;;3.35;;
13445;SDS011;6795;51.232;3.764;2023-07-20T20:41:13;3.10;;;2.88;;
13445;SDS011;6795;51.232;3.764;2023-07-20T20:43:42;4.70;;;3.55;;
13445;SDS011;6795;51.232;3.764;2023-07-20T20:46:16;4.90;;;3.28;;
13445;SDS011;6795;51.232;3.764;2023-07-20T20:48:47;3.47;;;3.10;;
13445;SDS011;6795;51.232;3.764;2023-07-20T20:51:16;3.75;;;3.47;;
13445;SDS011;6795;51.232;3.764;2023-07-20T20:53:44;3.15;;;2.95;;
13445;SDS011;6795;51.232;3.764;2023-07-20T20:56:12;2.60;;;2.50;;
13445;SDS011;6795;51.232;3.764;2023-07-20T20:58:41;3.30;;;3.10;;
13445;SDS011;6795;51.232;3.764;2023-07-20T21:01:10;3.40;;;3.20;;
13445;SDS011;6795;51.232;3.764;2023-07-20T21:03:40;3.45;;;3.20;;
13445;SDS011;6795;51.232;3.764;2023-07-20T21:10:01;4.25;;;3.88;;
13445;SDS011;6795;51.232;3.764;2023-07-20T21:13:30;6.05;;;5.63;;
13445;SDS011;6795;51.232;3.764;2023-07-20T21:17:25;6.05;;;5.65;;
13445;SDS011;6795;51.232;3.764;2023-07-20T21:21:27;7.18;;;6.65;;
13445;SDS011;6795;51.232;3.764;2023-07-20T21:24:38;6.97;;;6.25;;
13445;SDS011;6795;51.232;3.764;2023-07-20T21:27:56;6.68;;;6.13;;
13445;SDS011;6795;51.232;3.764;2023-07-20T21:31:18;6.30;;;6.00;;
13445;SDS011;6795;51.232;3.764;2023-07-20T21:34:38;6.93;;;6.22;;
13445;SDS011;6795;51.232;3.764;2023-07-20T21:41:33;9.30;;;7.90;;
13445;SDS011;6795;51.232;3.764;2023-07-20T21:44:23;9.52;;;8.93;;
13445;SDS011;6795;51.232;3.764;2023-07-20T21:47:54;9.15;;;8.45;;
13445;SDS011;6795;51.232;3.764;2023-07-20T21:50:58;9.07;;;8.45;;
13445;SDS011;6795;51.232;3.764;2023-07-20T21:53:57;8.15;;;7.55;;
13445;SDS011;6795;51.232;3.764;2023-07-20T21:57:24;10.00;;;9.13;;
13445;SDS011;6795;51.232;3.764;2023-07-20T22:00:40;11.30;;;10.40;;
13445;SDS011;6795;51.232;3.764;2023-07-20T22:04:06;11.88;;;10.77;;
13445;SDS011;6795;51.232;3.764;2023-07-20T22:07:09;10.20;;;9.40;;
13445;SDS011;6795;51.232;3.764;2023-07-20T22:10:18;10.82;;;9.93;;
13445;SDS011;6795;51.232;3.764;2023-07-20T22:24:23;12.75;;;11.55;;
13445;SDS011;6795;51.232;3.764;2023-07-20T22:27:31;14.73;;;13.60;;
13445;SDS011;6795;51.232;3.764;2023-07-20T22:31:04;16.65;;;15.15;;
13445;SDS011;6795;51.232;3.764;2023-07-20T22:34:08;15.63;;;14.25;;
13445;SDS011;6795;51.232;3.764;2023-07-20T22:37:20;15.52;;;14.18;;
13445;SDS011;6795;51.232;3.764;2023-07-20T22:40:51;17.30;;;15.90;;